createdAt,value
2022-08-09T00:07:54.414Z,12.06
2022-08-09T00:19:53.484Z,12.05
2022-08-09T00:31:59.578Z,12.04
2022-08-09T00:44:15.692Z,12.02
2022-08-09T00:56:04.226Z,12.01
2022-08-09T01:08:01.032Z,12.00
2022-08-09T01:20:02.386Z,11.98
2022-08-09T01:32:31.431Z,11.96
2022-08-09T01:43:53.474Z,11.95
2022-08-09T01:55:53.492Z,11.95
2022-08-09T02:08:40.945Z,11.93
2022-08-09T02:19:53.478Z,11.92
2022-08-09T02:31:53.449Z,11.90
2022-08-09T02:43:55.473Z,11.89
2022-08-09T02:55:58.280Z,11.88
2022-08-09T03:07:55.118Z,11.86
2022-08-09T03:20:00.471Z,11.84
2022-08-09T03:32:00.574Z,11.83
2022-08-09T03:44:07.800Z,11.82
2022-08-09T03:55:53.448Z,11.81
2022-08-09T04:07:56.767Z,11.80
2022-08-09T04:19:55.955Z,11.78
2022-08-09T04:31:53.423Z,11.77
2022-08-09T04:44:05.693Z,11.76
2022-08-09T04:55:58.029Z,11.76
2022-08-09T05:07:53.468Z,11.74
2022-08-09T05:19:56.729Z,11.74
2022-08-09T05:31:56.879Z,11.74
2022-08-09T05:43:53.460Z,11.74
2022-08-09T05:55:53.472Z,11.75
2022-08-09T06:08:05.348Z,11.77
2022-08-09T06:19:54.586Z,11.78
2022-08-09T06:32:18.372Z,11.84
2022-08-09T06:43:53.457Z,11.88
2022-08-09T06:55:53.444Z,11.93
2022-08-09T07:08:00.331Z,12.02
2022-08-09T07:19:55.694Z,12.08
2022-08-09T07:31:53.477Z,12.20
2022-08-09T07:43:56.327Z,12.28
2022-08-09T07:56:03.235Z,12.38
2022-08-09T08:08:44.650Z,12.54
2022-08-09T08:19:53.467Z,12.66
2022-08-09T08:32:03.182Z,12.68
2022-08-09T08:43:53.461Z,12.70
2022-08-09T08:55:53.928Z,12.71
2022-08-09T09:07:53.449Z,12.72
2022-08-09T09:19:53.481Z,12.72
2022-08-09T09:32:06.425Z,12.72
2022-08-09T09:44:11.670Z,12.72
2022-08-09T09:55:57.573Z,12.72
2022-08-09T10:08:10.855Z,12.72
2022-08-09T10:19:57.241Z,12.72
2022-08-09T10:32:37.586Z,12.72
2022-08-09T10:44:02.016Z,12.72
2022-08-09T10:55:58.477Z,12.73
2022-08-09T11:07:58.418Z,12.74
2022-08-09T11:20:10.636Z,12.74
2022-08-09T11:31:54.998Z,12.74
2022-08-09T11:43:53.431Z,12.76
2022-08-09T11:56:02.834Z,12.77
2022-08-09T12:07:54.846Z,12.79
2022-08-09T12:19:53.659Z,12.79
2022-08-09T12:31:58.963Z,12.81
2022-08-09T12:44:06.883Z,12.80
2022-08-09T12:56:15.639Z,12.81
2022-08-09T13:07:53.454Z,12.83
2022-08-09T13:20:10.009Z,12.80
2022-08-09T13:32:15.357Z,12.83
2022-08-09T13:43:53.468Z,12.84
2022-08-09T13:55:54.044Z,12.84
2022-08-09T14:07:53.451Z,12.84
2022-08-09T14:19:53.493Z,12.81
2022-08-09T14:31:54.241Z,12.90
2022-08-09T14:43:53.959Z,12.89
2022-08-09T14:55:53.472Z,12.91
2022-08-09T15:07:56.362Z,12.93
2022-08-09T15:19:59.172Z,12.91
2022-08-09T15:31:53.451Z,13.09
2022-08-09T15:43:53.459Z,12.89
2022-08-09T15:56:04.631Z,12.89
2022-08-09T16:07:53.464Z,12.91
2022-08-09T16:20:04.092Z,12.89
2022-08-09T16:32:18.709Z,12.79
2022-08-09T16:43:53.472Z,12.75
2022-08-09T16:55:59.819Z,12.10
2022-08-09T17:08:45.078Z,12.13
2022-08-09T17:20:28.208Z,12.06
2022-08-09T17:31:53.470Z,12.06
2022-08-09T17:44:38.419Z,12.05
2022-08-09T17:55:59.707Z,12.03
2022-08-09T18:07:53.463Z,12.01
2022-08-09T18:20:55.190Z,11.99
2022-08-09T18:31:55.681Z,11.97
2022-08-09T18:43:53.674Z,11.94
2022-08-09T18:55:56.883Z,11.94
2022-08-09T19:07:59.357Z,11.91
2022-08-09T19:20:00.902Z,11.88
2022-08-09T19:31:53.449Z,11.86
2022-08-09T19:44:00.321Z,11.85
2022-08-09T19:56:02.973Z,11.84
2022-08-09T20:07:58.915Z,11.82
2022-08-09T20:19:54.667Z,11.81
2022-08-09T20:32:30.228Z,11.77
2022-08-09T20:43:58.129Z,11.74
2022-08-09T20:56:02.558Z,11.75
2022-08-09T21:07:56.211Z,11.74
2022-08-09T21:20:17.207Z,12.24
2022-08-09T21:31:53.465Z,12.23
2022-08-09T21:43:57.682Z,12.22
2022-08-09T21:55:53.468Z,12.20
2022-08-09T22:07:54.170Z,12.19
2022-08-09T22:19:58.416Z,12.18
2022-08-09T22:31:57.454Z,12.16
2022-08-09T22:44:03.442Z,12.14
2022-08-09T22:56:29.815Z,12.13
2022-08-09T23:08:21.750Z,12.11
2022-08-09T23:20:06.956Z,12.10
2022-08-09T23:31:54.508Z,12.08
2022-08-09T23:43:54.244Z,12.07
2022-08-09T23:55:54.491Z,12.06
